Terminal Aerodrome Forecast
Issued by NWS

Home | Current Version | Previous Version | Graphics & Text | Print | Product List | Glossary On
Versions: 1 2 3 4 5 6 7 8 9 10 11 12 13 14 15 16 17
164
FTUS43 KICT 250522
TAFCNU
TAF
KCNU 250522Z 2506/2606 13006KT P6SM SCT150 BKN200
     FM250900 09005KT P6SM VCTS SCT070CB BKN120
     FM251500 VRB04KT P6SM SCT150
     FM252200 15007KT P6SM SCT150=

USA.gov is the U.S. government's official web portal to all federal, state and local government web resources and services.